SEGRZ ESSW-ESSV

Flight info

Callsign SEGRZ
Flight time 0h 36m
Altitude 2500
Route /
Aircraft C172/L-SFG/C

Departure

Time 2026-05-04 18:11
Airport Västervik Airport (ESSW)

Arrival

Time 2026-05-04 18:47
Airport Visby Airport (ESSV)
Time Latitude Longitude Altitude Speed Heading
2026-05-04 17:54 57.77795 16.52867 127 ft 0 kts 172°
2026-05-04 18:05 57.77776 16.52871 123 ft 8 kts 176°
2026-05-04 18:06 57.77722 16.52783 124 ft 0 kts 233°
2026-05-04 18:08 57.77711 16.52747 124 ft 8 kts 242°
2026-05-04 18:08 57.77658 16.52736 122 ft 10 kts 151°
2026-05-04 18:08 57.77582 16.52813 120 ft 15 kts 153°
2026-05-04 18:08 57.77529 16.52860 122 ft 3 kts 247°
2026-05-04 18:09 57.77532 16.52849 121 ft 0 kts 331°
2026-05-04 18:09 57.77703 16.52674 123 ft 47 kts 332°
2026-05-04 18:10 57.78080 16.52286 123 ft 73 kts 332°
2026-05-04 18:10 57.78527 16.51854 266 ft 71 kts 331°
2026-05-04 18:10 57.78943 16.51362 382 ft 69 kts 310°
2026-05-04 18:10 57.78914 16.50534 378 ft 85 kts 219°
2026-05-04 18:11 57.78535 16.50356 479 ft 88 kts 179°
2026-05-04 18:11 57.77973 16.50954 597 ft 97 kts 149°
2026-05-04 18:11 57.77427 16.51692 730 ft 98 kts 151°
2026-05-04 18:11 57.76842 16.52446 781 ft 108 kts 150°
2026-05-04 18:12 57.76090 16.53697 916 ft 106 kts 140°
2026-05-04 18:12 57.75822 16.54480 1017 ft 107 kts 115°
2026-05-04 18:12 57.75617 16.55898 1084 ft 115 kts 103°
2026-05-04 18:12 57.75454 16.57347 1223 ft 113 kts 103°
2026-05-04 18:13 57.75297 16.58763 1312 ft 114 kts 103°
2026-05-04 18:13 57.75142 16.60231 1395 ft 116 kts 102°
2026-05-04 18:13 57.74840 16.63266 1540 ft 120 kts 102°
2026-05-04 18:14 57.74685 16.64805 1623 ft 121 kts 99°
2026-05-04 18:14 57.74583 16.66364 1704 ft 121 kts 97°
2026-05-04 18:14 57.74494 16.67926 1781 ft 121 kts 97°
2026-05-04 18:15 57.74252 16.71146 1816 ft 129 kts 104°
2026-05-04 18:15 57.73985 16.74490 1818 ft 131 kts 82°
2026-05-04 18:15 57.74052 16.76182 1837 ft 130 kts 83°
2026-05-04 18:16 57.74132 16.77881 1841 ft 131 kts 85°
2026-05-04 18:16 57.74153 16.79583 1880 ft 130 kts 88°
2026-05-04 18:16 57.74165 16.81269 1908 ft 130 kts 86°
2026-05-04 18:17 57.74227 16.84582 2012 ft 125 kts 85°
2026-05-04 18:17 57.74234 16.86188 2005 ft 129 kts 88°
2026-05-04 18:17 57.74553 16.89451 2059 ft 125 kts 61°
2026-05-04 18:18 57.74996 16.90778 2106 ft 119 kts 38°
2026-05-04 18:18 57.75577 16.91880 2158 ft 116 kts 37°
2026-05-04 18:18 57.76068 16.93094 2195 ft 122 kts 54°
2026-05-04 18:18 57.76411 16.94598 2275 ft 129 kts 64°
2026-05-04 18:19 57.76954 16.97906 2497 ft 131 kts 70°
2026-05-04 18:19 57.77196 16.99561 2568 ft 136 kts 71°
2026-05-04 18:19 57.77422 17.01277 2687 ft 134 kts 73°
2026-05-04 18:20 57.77616 17.02993 2777 ft 136 kts 77°
2026-05-04 18:20 57.77759 17.04747 2876 ft 136 kts 81°
2026-05-04 18:20 57.77856 17.06510 2994 ft 136 kts 83°
2026-05-04 18:20 57.77914 17.08280 3086 ft 137 kts 86°
2026-05-04 18:21 57.77918 17.10070 3162 ft 138 kts 96°
2026-05-04 18:21 57.77806 17.11872 3216 ft 140 kts 95°
2026-05-04 18:21 57.77707 17.13693 3268 ft 141 kts 95°
2026-05-04 18:21 57.77609 17.15524 3329 ft 140 kts 95°
2026-05-04 18:22 57.77509 17.17298 3428 ft 137 kts 95°
2026-05-04 18:22 57.77420 17.19076 3487 ft 139 kts 95°
2026-05-04 18:22 57.77323 17.20903 3490 ft 142 kts 96°
2026-05-04 18:22 57.77164 17.22747 3494 ft 144 kts 105°
2026-05-04 18:23 57.76927 17.24588 3495 ft 146 kts 104°
2026-05-04 18:23 57.76683 17.26448 3496 ft 147 kts 104°
2026-05-04 18:23 57.76438 17.28315 3497 ft 148 kts 104°
2026-05-04 18:23 57.76193 17.30185 3497 ft 148 kts 104°
2026-05-04 18:24 57.75948 17.32059 3495 ft 148 kts 104°
2026-05-04 18:24 57.75709 17.33928 3495 ft 147 kts 104°
2026-05-04 18:24 57.75473 17.35794 3495 ft 147 kts 104°
2026-05-04 18:24 57.75237 17.37661 3495 ft 147 kts 104°
2026-05-04 18:25 57.75002 17.39523 3498 ft 147 kts 104°
2026-05-04 18:25 57.74762 17.41365 3497 ft 148 kts 104°
2026-05-04 18:25 57.74515 17.43229 3497 ft 147 kts 104°
2026-05-04 18:25 57.74268 17.45089 3496 ft 147 kts 104°
2026-05-04 18:26 57.74022 17.46948 3496 ft 147 kts 104°
2026-05-04 18:26 57.73951 17.48822 3477 ft 145 kts 68°
2026-05-04 18:26 57.74477 17.50355 3495 ft 141 kts 52°
2026-05-04 18:26 57.75205 17.51329 3484 ft 123 kts 356°
2026-05-04 18:27 57.75878 17.50733 3485 ft 106 kts 297°
2026-05-04 18:27 57.75833 17.49418 3491 ft 108 kts 250°
2026-05-04 18:27 57.75194 17.48581 3488 ft 126 kts 199°
2026-05-04 18:27 57.74295 17.48879 3489 ft 135 kts 171°
2026-05-04 18:28 57.73440 17.49646 3482 ft 144 kts 139°
2026-05-04 18:28 57.73002 17.51350 3489 ft 147 kts 112°
2026-05-04 18:28 57.72641 17.53145 3491 ft 148 kts 112°
2026-05-04 18:28 57.72284 17.54923 3491 ft 148 kts 112°
2026-05-04 18:29 57.71920 17.56722 3490 ft 148 kts 112°
2026-05-04 18:29 57.71560 17.58517 3489 ft 147 kts 112°
2026-05-04 18:29 57.71202 17.60307 3490 ft 147 kts 112°
2026-05-04 18:29 57.70810 17.62061 3490 ft 146 kts 117°
2026-05-04 18:30 57.69978 17.65522 3491 ft 146 kts 117°
2026-05-04 18:30 57.69564 17.67255 3492 ft 146 kts 116°
2026-05-04 18:30 57.69148 17.69000 3492 ft 147 kts 116°
2026-05-04 18:31 57.68730 17.70744 3495 ft 147 kts 116°
2026-05-04 18:31 57.68313 17.72490 3494 ft 147 kts 116°
2026-05-04 18:31 57.67894 17.74238 3494 ft 147 kts 116°
2026-05-04 18:31 57.67472 17.75978 3493 ft 147 kts 117°
2026-05-04 18:32 57.67051 17.77717 3489 ft 147 kts 117°
2026-05-04 18:32 57.66632 17.79453 3488 ft 146 kts 116°
2026-05-04 18:32 57.66212 17.81189 3490 ft 146 kts 116°
2026-05-04 18:32 57.65793 17.82916 3487 ft 146 kts 116°
2026-05-04 18:33 57.65374 17.84645 3489 ft 146 kts 116°
2026-05-04 18:33 57.64936 17.86354 3488 ft 146 kts 118°
2026-05-04 18:33 57.64495 17.88035 3487 ft 146 kts 118°
2026-05-04 18:33 57.64049 17.89734 3488 ft 146 kts 118°
2026-05-04 18:34 57.63600 17.91431 3492 ft 146 kts 118°
2026-05-04 18:34 57.63150 17.93132 3493 ft 147 kts 118°
2026-05-04 18:34 57.62698 17.94842 3494 ft 147 kts 118°
2026-05-04 18:34 57.62253 17.96550 3494 ft 146 kts 118°
2026-05-04 18:35 57.61808 17.98244 3493 ft 145 kts 118°
2026-05-04 18:35 57.61364 17.99936 3493 ft 145 kts 118°
2026-05-04 18:35 57.60920 18.01632 3494 ft 145 kts 118°
2026-05-04 18:35 57.60475 18.03322 3493 ft 145 kts 118°
2026-05-04 18:36 57.60014 18.05035 3366 ft 152 kts 119°
2026-05-04 18:36 57.59528 18.06829 3183 ft 157 kts 119°
2026-05-04 18:36 57.59045 18.08647 2987 ft 159 kts 119°
2026-05-04 18:36 57.58554 18.10505 2783 ft 160 kts 118°
2026-05-04 18:37 57.58157 18.12446 2551 ft 163 kts 98°
2026-05-04 18:37 57.58179 18.14570 2228 ft 166 kts 80°
2026-05-04 18:37 57.58428 18.16669 1846 ft 166 kts 68°
2026-05-04 18:37 57.58851 18.18677 1466 ft 167 kts 61°
2026-05-04 18:38 57.59407 18.20568 1114 ft 161 kts 53°
2026-05-04 18:38 57.60041 18.22090 1090 ft 139 kts 40°
2026-05-04 18:38 57.60717 18.23248 1094 ft 126 kts 30°
2026-05-04 18:38 57.61415 18.24214 1094 ft 124 kts 30°
2026-05-04 18:39 57.62093 18.25183 1089 ft 121 kts 26°
2026-05-04 18:39 57.62845 18.25726 1090 ft 121 kts 24°
2026-05-04 18:39 57.63540 18.26637 1102 ft 123 kts 28°
2026-05-04 18:39 57.64221 18.27615 1101 ft 123 kts 28°
2026-05-04 18:40 57.64898 18.28580 1099 ft 122 kts 28°
2026-05-04 18:40 57.65577 18.29538 1100 ft 122 kts 28°
2026-05-04 18:40 57.66256 18.30491 1083 ft 122 kts 29°
2026-05-04 18:40 57.66940 18.31435 1085 ft 122 kts 28°
2026-05-04 18:41 57.67647 18.32278 1072 ft 116 kts
2026-05-04 18:41 57.68350 18.32010 1090 ft 102 kts 329°
2026-05-04 18:41 57.69026 18.31579 1094 ft 102 kts 330°
2026-05-04 18:41 57.69676 18.31065 1096 ft 101 kts 326°
2026-05-04 18:42 57.70311 18.30531 1100 ft 101 kts 327°
2026-05-04 18:42 57.70940 18.29961 1094 ft 100 kts 326°
2026-05-04 18:42 57.71627 18.29665 1091 ft 108 kts 359°
2026-05-04 18:42 57.72315 18.30334 1118 ft 117 kts 38°
2026-05-04 18:43 57.72708 18.31741 1105 ft 125 kts 69°
2026-05-04 18:43 57.72930 18.33322 1079 ft 126 kts 74°
2026-05-04 18:43 57.73097 18.34905 1146 ft 124 kts 77°
2026-05-04 18:43 57.73231 18.36516 1135 ft 127 kts 79°
2026-05-04 18:44 57.73321 18.38169 1170 ft 124 kts 71°
2026-05-04 18:44 57.73494 18.39170 1167 ft 121 kts 66°
2026-05-04 18:44 57.73290 18.41091 1131 ft 122 kts 146°
2026-05-04 18:44 57.72518 18.41357 971 ft 107 kts 212°
2026-05-04 18:45 57.72006 18.40477 944 ft 99 kts 237°
2026-05-04 18:45 57.71528 18.39524 910 ft 101 kts 231°
2026-05-04 18:45 57.71027 18.38599 879 ft 101 kts 227°
2026-05-04 18:45 57.70496 18.37945 841 ft 84 kts 219°
2026-05-04 18:46 57.69963 18.37401 789 ft 91 kts 216°
2026-05-04 18:46 57.69383 18.36862 674 ft 96 kts 210°
2026-05-04 18:46 57.68757 18.36393 542 ft 95 kts 205°
2026-05-04 18:46 57.68188 18.35995 425 ft 77 kts 205°
2026-05-04 18:47 57.67732 18.35665 354 ft 69 kts 206°
2026-05-04 18:47 57.67274 18.35340 240 ft 71 kts 204°
2026-05-04 18:47 57.66847 18.35028 156 ft 58 kts 205°
2026-05-04 18:47 57.66553 18.34811 150 ft 34 kts 201°
2026-05-04 18:48 57.66386 18.34693 151 ft 22 kts 201°
2026-05-04 18:48 57.66230 18.34585 152 ft 30 kts 199°
2026-05-04 18:48 57.66043 18.34453 151 ft 27 kts 202°
2026-05-04 18:48 57.65967 18.34309 152 ft 13 kts 289°
2026-05-04 18:49 57.65983 18.34232 153 ft 3 kts 290°
2026-05-04 18:49 57.65984 18.34231 153 ft 0 kts 290°
2026-05-04 18:49 57.65988 18.34206 153 ft 9 kts 290°
2026-05-04 18:50 57.65999 18.34040 154 ft 15 kts 232°
2026-05-04 18:50 57.65942 18.33939 154 ft 10 kts 290°
2026-05-04 18:50 57.65946 18.33871 154 ft 4 kts 144°
2026-05-04 18:50 57.65942 18.33881 154 ft 0 kts 124°